sensor_id;sensor_type;location;lat;lon;timestamp;P1;durP1;ratioP1;P2;durP2;ratioP2
25299;SDS011;13241;51.208;4.432;2023-02-28T00:01:14;4.60;;;3.05;;
25299;SDS011;13241;51.208;4.432;2023-02-28T00:03:42;4.97;;;2.88;;
25299;SDS011;13241;51.208;4.432;2023-02-28T00:06:09;6.00;;;2.67;;
25299;SDS011;13241;51.208;4.432;2023-02-28T00:08:37;4.07;;;2.95;;
25299;SDS011;13241;51.208;4.432;2023-02-28T00:11:11;10.80;;;2.58;;
25299;SDS011;13241;51.208;4.432;2023-02-28T00:13:40;5.35;;;2.95;;
25299;SDS011;13241;51.208;4.432;2023-02-28T00:16:10;2.72;;;2.35;;
25299;SDS011;13241;51.208;4.432;2023-02-28T00:18:37;8.82;;;3.20;;
25299;SDS011;13241;51.208;4.432;2023-02-28T00:21:05;4.30;;;2.97;;
25299;SDS011;13241;51.208;4.432;2023-02-28T00:23:32;5.30;;;2.55;;
25299;SDS011;13241;51.208;4.432;2023-02-28T00:25:59;3.35;;;2.75;;
25299;SDS011;13241;51.208;4.432;2023-02-28T00:28:27;4.32;;;2.85;;
25299;SDS011;13241;51.208;4.432;2023-02-28T00:30:54;5.55;;;3.28;;
25299;SDS011;13241;51.208;4.432;2023-02-28T00:33:23;3.33;;;2.58;;
25299;SDS011;13241;51.208;4.432;2023-02-28T00:35:50;5.75;;;2.97;;
25299;SDS011;13241;51.208;4.432;2023-02-28T00:38:18;4.90;;;2.63;;
25299;SDS011;13241;51.208;4.432;2023-02-28T00:40:45;5.53;;;2.75;;
25299;SDS011;13241;51.208;4.432;2023-02-28T00:43:13;4.57;;;2.80;;
25299;SDS011;13241;51.208;4.432;2023-02-28T00:45:40;2.67;;;2.15;;
25299;SDS011;13241;51.208;4.432;2023-02-28T00:48:07;3.78;;;2.80;;
25299;SDS011;13241;51.208;4.432;2023-02-28T00:50:34;3.92;;;2.53;;
25299;SDS011;13241;51.208;4.432;2023-02-28T00:53:01;4.68;;;3.13;;
25299;SDS011;13241;51.208;4.432;2023-02-28T00:55:29;2.63;;;2.35;;
25299;SDS011;13241;51.208;4.432;2023-02-28T00:57:56;4.22;;;2.55;;
25299;SDS011;13241;51.208;4.432;2023-02-28T01:00:24;3.67;;;2.53;;
25299;SDS011;13241;51.208;4.432;2023-02-28T01:02:51;3.58;;;2.72;;
25299;SDS011;13241;51.208;4.432;2023-02-28T01:05:18;3.30;;;2.63;;
25299;SDS011;13241;51.208;4.432;2023-02-28T01:07:45;3.40;;;2.67;;
25299;SDS011;13241;51.208;4.432;2023-02-28T01:10:13;5.05;;;2.72;;
25299;SDS011;13241;51.208;4.432;2023-02-28T01:12:40;4.65;;;2.90;;
25299;SDS011;13241;51.208;4.432;2023-02-28T01:15:09;2.72;;;2.22;;
25299;SDS011;13241;51.208;4.432;2023-02-28T01:17:37;3.78;;;2.75;;
25299;SDS011;13241;51.208;4.432;2023-02-28T01:20:05;2.88;;;2.15;;
25299;SDS011;13241;51.208;4.432;2023-02-28T01:22:34;8.32;;;2.85;;
25299;SDS011;13241;51.208;4.432;2023-02-28T01:25:01;4.63;;;3.03;;
25299;SDS011;13241;51.208;4.432;2023-02-28T01:27:30;5.45;;;3.17;;
25299;SDS011;13241;51.208;4.432;2023-02-28T01:29:57;8.40;;;2.25;;
25299;SDS011;13241;51.208;4.432;2023-02-28T01:32:25;7.03;;;2.78;;
25299;SDS011;13241;51.208;4.432;2023-02-28T01:34:52;4.97;;;2.88;;
25299;SDS011;13241;51.208;4.432;2023-02-28T01:37:22;4.70;;;3.05;;
25299;SDS011;13241;51.208;4.432;2023-02-28T01:39:49;4.15;;;2.40;;
25299;SDS011;13241;51.208;4.432;2023-02-28T01:42:19;4.40;;;2.20;;
25299;SDS011;13241;51.208;4.432;2023-02-28T01:47:25;5.10;;;2.63;;
25299;SDS011;13241;51.208;4.432;2023-02-28T01:49:55;6.75;;;3.78;;
25299;SDS011;13241;51.208;4.432;2023-02-28T01:52:23;8.38;;;4.00;;
25299;SDS011;13241;51.208;4.432;2023-02-28T01:54:54;5.32;;;2.70;;
25299;SDS011;13241;51.208;4.432;2023-02-28T01:57:24;5.85;;;2.83;;
25299;SDS011;13241;51.208;4.432;2023-02-28T02:02:20;3.72;;;2.70;;
25299;SDS011;13241;51.208;4.432;2023-02-28T02:04:53;4.60;;;2.10;;
25299;SDS011;13241;51.208;4.432;2023-02-28T02:07:21;4.67;;;3.17;;
25299;SDS011;13241;51.208;4.432;2023-02-28T02:09:48;7.43;;;3.03;;
25299;SDS011;13241;51.208;4.432;2023-02-28T02:12:23;2.67;;;2.15;;
25299;SDS011;13241;51.208;4.432;2023-02-28T02:17:34;5.82;;;2.80;;
25299;SDS011;13241;51.208;4.432;2023-02-28T02:22:44;3.67;;;3.28;;
25299;SDS011;13241;51.208;4.432;2023-02-28T02:28:16;2.80;;;2.42;;
25299;SDS011;13241;51.208;4.432;2023-02-28T02:33:21;4.65;;;2.78;;
25299;SDS011;13241;51.208;4.432;2023-02-28T02:38:53;2.35;;;2.00;;
25299;SDS011;13241;51.208;4.432;2023-02-28T02:41:33;6.78;;;3.17;;
25299;SDS011;13241;51.208;4.432;2023-02-28T02:44:06;3.80;;;3.00;;
25299;SDS011;13241;51.208;4.432;2023-02-28T02:46:34;4.88;;;2.42;;
25299;SDS011;13241;51.208;4.432;2023-02-28T02:49:05;9.02;;;3.67;;
25299;SDS011;13241;51.208;4.432;2023-02-28T02:51:34;4.47;;;2.78;;
25299;SDS011;13241;51.208;4.432;2023-02-28T02:54:06;2.95;;;2.20;;
25299;SDS011;13241;51.208;4.432;2023-02-28T02:56:35;4.13;;;3.03;;
25299;SDS011;13241;51.208;4.432;2023-02-28T02:59:04;6.90;;;2.80;;
25299;SDS011;13241;51.208;4.432;2023-02-28T03:01:33;6.55;;;2.65;;
25299;SDS011;13241;51.208;4.432;2023-02-28T03:04:09;2.67;;;2.38;;
25299;SDS011;13241;51.208;4.432;2023-02-28T03:06:38;4.20;;;2.33;;
25299;SDS011;13241;51.208;4.432;2023-02-28T03:09:05;4.00;;;2.97;;
25299;SDS011;13241;51.208;4.432;2023-02-28T03:11:34;5.38;;;2.42;;
25299;SDS011;13241;51.208;4.432;2023-02-28T03:24:41;3.22;;;2.58;;
25299;SDS011;13241;51.208;4.432;2023-02-28T03:27:06;4.00;;;2.20;;
25299;SDS011;13241;51.208;4.432;2023-02-28T03:29:37;5.03;;;2.75;;
25299;SDS011;13241;51.208;4.432;2023-02-28T03:32:08;4.25;;;2.42;;
25299;SDS011;13241;51.208;4.432;2023-02-28T03:34:42;3.85;;;2.67;;
25299;SDS011;13241;51.208;4.432;2023-02-28T03:37:13;7.43;;;2.75;;
25299;SDS011;13241;51.208;4.432;2023-02-28T03:39:53;4.63;;;2.05;;
25299;SDS011;13241;51.208;4.432;2023-02-28T03:42:33;4.65;;;3.05;;
25299;SDS011;13241;51.208;4.432;2023-02-28T03:45:02;4.38;;;3.00;;
25299;SDS011;13241;51.208;4.432;2023-02-28T03:47:35;2.78;;;1.92;;
25299;SDS011;13241;51.208;4.432;2023-02-28T03:50:08;2.65;;;2.45;;
25299;SDS011;13241;51.208;4.432;2023-02-28T03:52:40;2.63;;;2.42;;
25299;SDS011;13241;51.208;4.432;2023-02-28T03:55:11;5.95;;;3.00;;
25299;SDS011;13241;51.208;4.432;2023-02-28T03:57:50;2.33;;;1.85;;
25299;SDS011;13241;51.208;4.432;2023-02-28T04:00:30;4.15;;;2.60;;
25299;SDS011;13241;51.208;4.432;2023-02-28T04:02:58;6.10;;;2.38;;
25299;SDS011;13241;51.208;4.432;2023-02-28T04:05:26;2.75;;;2.35;;
25299;SDS011;13241;51.208;4.432;2023-02-28T04:07:53;2.33;;;2.13;;
25299;SDS011;13241;51.208;4.432;2023-02-28T04:10:20;3.00;;;2.70;;
25299;SDS011;13241;51.208;4.432;2023-02-28T04:12:48;2.33;;;1.65;;
25299;SDS011;13241;51.208;4.432;2023-02-28T04:15:15;1.85;;;1.73;;
25299;SDS011;13241;51.208;4.432;2023-02-28T04:17:42;9.63;;;2.85;;
25299;SDS011;13241;51.208;4.432;2023-02-28T04:20:09;4.88;;;2.40;;
25299;SDS011;13241;51.208;4.432;2023-02-28T04:22:37;4.30;;;3.03;;
25299;SDS011;13241;51.208;4.432;2023-02-28T04:25:05;3.72;;;2.80;;
25299;SDS011;13241;51.208;4.432;2023-02-28T04:27:32;4.20;;;2.28;;
25299;SDS011;13241;51.208;4.432;2023-02-28T04:29:59;3.47;;;2.72;;
25299;SDS011;13241;51.208;4.432;2023-02-28T04:32:26;2.85;;;2.15;;
25299;SDS011;13241;51.208;4.432;2023-02-28T04:34:54;7.20;;;2.72;;
25299;SDS011;13241;51.208;4.432;2023-02-28T04:37:21;2.88;;;2.05;;
25299;SDS011;13241;51.208;4.432;2023-02-28T04:39:53;1.88;;;1.70;;
25299;SDS011;13241;51.208;4.432;2023-02-28T04:42:21;7.93;;;2.60;;
25299;SDS011;13241;51.208;4.432;2023-02-28T04:44:48;4.63;;;3.42;;
25299;SDS011;13241;51.208;4.432;2023-02-28T04:47:15;4.90;;;2.67;;
25299;SDS011;13241;51.208;4.432;2023-02-28T04:49:42;2.53;;;2.33;;
25299;SDS011;13241;51.208;4.432;2023-02-28T04:52:09;3.78;;;2.78;;
25299;SDS011;13241;51.208;4.432;2023-02-28T04:54:37;2.90;;;2.30;;
25299;SDS011;13241;51.208;4.432;2023-02-28T04:57:05;4.10;;;2.40;;
25299;SDS011;13241;51.208;4.432;2023-02-28T04:59:32;2.45;;;2.08;;
25299;SDS011;13241;51.208;4.432;2023-02-28T05:01:59;7.47;;;3.35;;
25299;SDS011;13241;51.208;4.432;2023-02-28T05:04:30;3.38;;;2.00;;
25299;SDS011;13241;51.208;4.432;2023-02-28T05:07:00;2.80;;;1.95;;
25299;SDS011;13241;51.208;4.432;2023-02-28T05:09:27;1.80;;;1.67;;
25299;SDS011;13241;51.208;4.432;2023-02-28T05:11:55;2.80;;;1.95;;
25299;SDS011;13241;51.208;4.432;2023-02-28T05:14:22;6.18;;;3.20;;
25299;SDS011;13241;51.208;4.432;2023-02-28T05:16:50;5.50;;;2.88;;
25299;SDS011;13241;51.208;4.432;2023-02-28T05:19:17;6.88;;;3.35;;
25299;SDS011;13241;51.208;4.432;2023-02-28T05:21:51;6.53;;;2.55;;
25299;SDS011;13241;51.208;4.432;2023-02-28T05:24:19;3.63;;;2.38;;
25299;SDS011;13241;51.208;4.432;2023-02-28T05:26:49;4.50;;;2.80;;
25299;SDS011;13241;51.208;4.432;2023-02-28T05:29:18;2.63;;;2.42;;
25299;SDS011;13241;51.208;4.432;2023-02-28T05:31:45;2.13;;;1.75;;
25299;SDS011;13241;51.208;4.432;2023-02-28T05:34:13;3.85;;;2.58;;
25299;SDS011;13241;51.208;4.432;2023-02-28T05:36:42;3.60;;;2.00;;
25299;SDS011;13241;51.208;4.432;2023-02-28T05:39:09;2.75;;;2.20;;
25299;SDS011;13241;51.208;4.432;2023-02-28T05:41:39;2.33;;;1.95;;
25299;SDS011;13241;51.208;4.432;2023-02-28T05:44:07;7.43;;;3.85;;
25299;SDS011;13241;51.208;4.432;2023-02-28T05:46:34;5.50;;;2.35;;
25299;SDS011;13241;51.208;4.432;2023-02-28T05:49:01;2.78;;;2.35;;
25299;SDS011;13241;51.208;4.432;2023-02-28T05:51:29;3.28;;;2.58;;
25299;SDS011;13241;51.208;4.432;2023-02-28T05:54:00;4.35;;;2.40;;
25299;SDS011;13241;51.208;4.432;2023-02-28T05:56:28;12.95;;;2.60;;
25299;SDS011;13241;51.208;4.432;2023-02-28T05:58:55;9.73;;;2.55;;
25299;SDS011;13241;51.208;4.432;2023-02-28T06:04:01;3.65;;;2.45;;
25299;SDS011;13241;51.208;4.432;2023-02-28T06:06:29;2.75;;;1.90;;
25299;SDS011;13241;51.208;4.432;2023-02-28T06:08:56;6.93;;;2.13;;
25299;SDS011;13241;51.208;4.432;2023-02-28T06:11:24;2.38;;;1.83;;
25299;SDS011;13241;51.208;4.432;2023-02-28T06:13:54;3.67;;;2.08;;
25299;SDS011;13241;51.208;4.432;2023-02-28T06:16:22;6.30;;;3.38;;
25299;SDS011;13241;51.208;4.432;2023-02-28T06:18:50;2.08;;;1.88;;
25299;SDS011;13241;51.208;4.432;2023-02-28T06:21:18;3.05;;;2.30;;
25299;SDS011;13241;51.208;4.432;2023-02-28T06:23:45;3.40;;;2.67;;
25299;SDS011;13241;51.208;4.432;2023-02-28T06:26:13;3.08;;;2.40;;
25299;SDS011;13241;51.208;4.432;2023-02-28T06:28:40;3.53;;;1.83;;
25299;SDS011;13241;51.208;4.432;2023-02-28T06:31:08;3.78;;;2.83;;
25299;SDS011;13241;51.208;4.432;2023-02-28T06:33:36;4.43;;;3.03;;
25299;SDS011;13241;51.208;4.432;2023-02-28T06:36:03;3.35;;;2.35;;
25299;SDS011;13241;51.208;4.432;2023-02-28T06:38:31;1.70;;;1.58;;
25299;SDS011;13241;51.208;4.432;2023-02-28T06:40:59;6.85;;;3.78;;
25299;SDS011;13241;51.208;4.432;2023-02-28T06:43:29;4.32;;;2.33;;
25299;SDS011;13241;51.208;4.432;2023-02-28T06:45:58;2.70;;;2.45;;
25299;SDS011;13241;51.208;4.432;2023-02-28T06:48:26;8.18;;;2.97;;
25299;SDS011;13241;51.208;4.432;2023-02-28T06:53:51;5.20;;;2.38;;
25299;SDS011;13241;51.208;4.432;2023-02-28T06:56:18;6.65;;;3.10;;
25299;SDS011;13241;51.208;4.432;2023-02-28T06:58:48;2.90;;;2.47;;
25299;SDS011;13241;51.208;4.432;2023-02-28T07:01:15;7.70;;;2.47;;
25299;SDS011;13241;51.208;4.432;2023-02-28T07:03:44;13.13;;;2.50;;
25299;SDS011;13241;51.208;4.432;2023-02-28T07:06:11;4.47;;;2.30;;
25299;SDS011;13241;51.208;4.432;2023-02-28T07:08:38;4.20;;;2.17;;
25299;SDS011;13241;51.208;4.432;2023-02-28T07:11:07;3.63;;;2.38;;
25299;SDS011;13241;51.208;4.432;2023-02-28T07:13:34;6.05;;;2.67;;
25299;SDS011;13241;51.208;4.432;2023-02-28T07:16:03;4.20;;;2.25;;
25299;SDS011;13241;51.208;4.432;2023-02-28T07:18:31;4.10;;;2.45;;
25299;SDS011;13241;51.208;4.432;2023-02-28T07:20:58;3.10;;;2.38;;
25299;SDS011;13241;51.208;4.432;2023-02-28T07:23:28;7.05;;;2.92;;
25299;SDS011;13241;51.208;4.432;2023-02-28T07:25:55;3.95;;;3.22;;
25299;SDS011;13241;51.208;4.432;2023-02-28T07:28:22;2.88;;;2.55;;
25299;SDS011;13241;51.208;4.432;2023-02-28T07:30:50;3.35;;;2.55;;
25299;SDS011;13241;51.208;4.432;2023-02-28T07:33:17;1.55;;;1.45;;
25299;SDS011;13241;51.208;4.432;2023-02-28T07:35:44;2.95;;;2.25;;
25299;SDS011;13241;51.208;4.432;2023-02-28T07:38:12;2.08;;;1.67;;
25299;SDS011;13241;51.208;4.432;2023-02-28T07:40:40;4.97;;;2.38;;
25299;SDS011;13241;51.208;4.432;2023-02-28T07:43:07;3.80;;;3.15;;
25299;SDS011;13241;51.208;4.432;2023-02-28T07:45:34;4.32;;;2.67;;
25299;SDS011;13241;51.208;4.432;2023-02-28T07:48:01;2.22;;;2.03;;
25299;SDS011;13241;51.208;4.432;2023-02-28T07:50:29;5.35;;;2.70;;
25299;SDS011;13241;51.208;4.432;2023-02-28T07:52:59;5.13;;;3.05;;
25299;SDS011;13241;51.208;4.432;2023-02-28T07:55:27;2.85;;;2.20;;
25299;SDS011;13241;51.208;4.432;2023-02-28T07:57:54;3.22;;;2.17;;
25299;SDS011;13241;51.208;4.432;2023-02-28T08:00:21;5.50;;;2.35;;
25299;SDS011;13241;51.208;4.432;2023-02-28T08:02:49;5.90;;;2.92;;
25299;SDS011;13241;51.208;4.432;2023-02-28T08:05:17;6.72;;;2.78;;
25299;SDS011;13241;51.208;4.432;2023-02-28T08:07:48;8.20;;;2.70;;
25299;SDS011;13241;51.208;4.432;2023-02-28T08:10:16;2.08;;;1.88;;
25299;SDS011;13241;51.208;4.432;2023-02-28T08:12:43;3.95;;;2.65;;
25299;SDS011;13241;51.208;4.432;2023-02-28T08:15:10;12.32;;;3.00;;
25299;SDS011;13241;51.208;4.432;2023-02-28T08:17:38;3.60;;;2.05;;
25299;SDS011;13241;51.208;4.432;2023-02-28T08:20:06;3.10;;;1.95;;
25299;SDS011;13241;51.208;4.432;2023-02-28T08:22:33;4.07;;;1.30;;
25299;SDS011;13241;51.208;4.432;2023-02-28T08:25:00;4.93;;;2.42;;
25299;SDS011;13241;51.208;4.432;2023-02-28T08:27:28;5.32;;;2.50;;
25299;SDS011;13241;51.208;4.432;2023-02-28T08:29:55;6.32;;;2.17;;
25299;SDS011;13241;51.208;4.432;2023-02-28T08:32:22;8.05;;;2.60;;
25299;SDS011;13241;51.208;4.432;2023-02-28T08:34:55;2.22;;;2.03;;
25299;SDS011;13241;51.208;4.432;2023-02-28T08:37:23;2.33;;;2.08;;
25299;SDS011;13241;51.208;4.432;2023-02-28T08:39:50;1.40;;;1.30;;
25299;SDS011;13241;51.208;4.432;2023-02-28T08:42:22;3.60;;;2.20;;
25299;SDS011;13241;51.208;4.432;2023-02-28T08:44:49;2.20;;;1.58;;
25299;SDS011;13241;51.208;4.432;2023-02-28T08:47:16;4.72;;;1.40;;
25299;SDS011;13241;51.208;4.432;2023-02-28T08:49:43;2.42;;;2.22;;
25299;SDS011;13241;51.208;4.432;2023-02-28T08:52:11;1.70;;;1.20;;
25299;SDS011;13241;51.208;4.432;2023-02-28T08:54:38;0.98;;;0.80;;
25299;SDS011;13241;51.208;4.432;2023-02-28T08:57:05;3.90;;;1.50;;
25299;SDS011;13241;51.208;4.432;2023-02-28T08:59:33;6.00;;;2.00;;
25299;SDS011;13241;51.208;4.432;2023-02-28T09:02:00;6.13;;;1.75;;
25299;SDS011;13241;51.208;4.432;2023-02-28T09:04:27;2.47;;;1.75;;
25299;SDS011;13241;51.208;4.432;2023-02-28T09:06:57;2.13;;;1.55;;
25299;SDS011;13241;51.208;4.432;2023-02-28T09:09:24;2.10;;;1.90;;
25299;SDS011;13241;51.208;4.432;2023-02-28T09:11:51;2.05;;;1.45;;
25299;SDS011;13241;51.208;4.432;2023-02-28T09:14:19;2.13;;;1.50;;
25299;SDS011;13241;51.208;4.432;2023-02-28T09:16:46;2.35;;;1.55;;
25299;SDS011;13241;51.208;4.432;2023-02-28T09:19:13;3.47;;;1.75;;
25299;SDS011;13241;51.208;4.432;2023-02-28T09:21:41;3.90;;;1.58;;
25299;SDS011;13241;51.208;4.432;2023-02-28T09:24:08;5.50;;;2.33;;
25299;SDS011;13241;51.208;4.432;2023-02-28T09:26:37;1.75;;;1.45;;
25299;SDS011;13241;51.208;4.432;2023-02-28T09:29:12;1.65;;;1.35;;
25299;SDS011;13241;51.208;4.432;2023-02-28T09:31:42;1.48;;;1.38;;
25299;SDS011;13241;51.208;4.432;2023-02-28T09:34:10;2.92;;;1.42;;
25299;SDS011;13241;51.208;4.432;2023-02-28T09:36:37;1.75;;;1.15;;
25299;SDS011;13241;51.208;4.432;2023-02-28T09:39:11;6.47;;;2.03;;
25299;SDS011;13241;51.208;4.432;2023-02-28T09:41:41;3.92;;;2.63;;
25299;SDS011;13241;51.208;4.432;2023-02-28T09:44:19;7.45;;;1.88;;
25299;SDS011;13241;51.208;4.432;2023-02-28T09:46:48;2.15;;;1.27;;
25299;SDS011;13241;51.208;4.432;2023-02-28T09:49:18;1.58;;;1.30;;
25299;SDS011;13241;51.208;4.432;2023-02-28T09:51:56;1.38;;;1.27;;
25299;SDS011;13241;51.208;4.432;2023-02-28T09:54:27;1.58;;;1.25;;
25299;SDS011;13241;51.208;4.432;2023-02-28T09:56:59;1.00;;;0.90;;
25299;SDS011;13241;51.208;4.432;2023-02-28T09:59:38;3.28;;;1.30;;
25299;SDS011;13241;51.208;4.432;2023-02-28T10:02:13;1.08;;;0.98;;
25299;SDS011;13241;51.208;4.432;2023-02-28T10:04:47;1.27;;;0.93;;
25299;SDS011;13241;51.208;4.432;2023-02-28T10:09:46;2.63;;;1.10;;
25299;SDS011;13241;51.208;4.432;2023-02-28T10:12:15;0.88;;;0.88;;
25299;SDS011;13241;51.208;4.432;2023-02-28T10:14:44;1.35;;;1.23;;
25299;SDS011;13241;51.208;4.432;2023-02-28T10:17:47;0.88;;;0.77;;
25299;SDS011;13241;51.208;4.432;2023-02-28T10:20:25;1.92;;;0.80;;
25299;SDS011;13241;51.208;4.432;2023-02-28T10:25:28;0.60;;;0.60;;
25299;SDS011;13241;51.208;4.432;2023-02-28T10:28:00;1.45;;;0.95;;
25299;SDS011;13241;51.208;4.432;2023-02-28T10:30:28;0.93;;;0.82;;
25299;SDS011;13241;51.208;4.432;2023-02-28T10:32:55;0.80;;;0.80;;
25299;SDS011;13241;51.208;4.432;2023-02-28T10:35:24;2.50;;;1.10;;
25299;SDS011;13241;51.208;4.432;2023-02-28T10:37:55;1.52;;;1.08;;
25299;SDS011;13241;51.208;4.432;2023-02-28T10:43:00;1.15;;;0.85;;
25299;SDS011;13241;51.208;4.432;2023-02-28T10:45:29;3.53;;;0.98;;
25299;SDS011;13241;51.208;4.432;2023-02-28T10:48:02;0.80;;;0.80;;
25299;SDS011;13241;51.208;4.432;2023-02-28T10:50:44;1.07;;;0.77;;
25299;SDS011;13241;51.208;4.432;2023-02-28T10:58:26;0.73;;;0.73;;
25299;SDS011;13241;51.208;4.432;2023-02-28T11:00:54;0.98;;;0.90;;
25299;SDS011;13241;51.208;4.432;2023-02-28T11:03:32;2.28;;;0.80;;
25299;SDS011;13241;51.208;4.432;2023-02-28T11:06:04;6.38;;;1.13;;
25299;SDS011;13241;51.208;4.432;2023-02-28T11:08:32;1.85;;;1.35;;
25299;SDS011;13241;51.208;4.432;2023-02-28T11:11:01;3.47;;;1.52;;
25299;SDS011;13241;51.208;4.432;2023-02-28T11:13:32;3.35;;;1.23;;
25299;SDS011;13241;51.208;4.432;2023-02-28T11:16:07;1.48;;;0.98;;
25299;SDS011;13241;51.208;4.432;2023-02-28T11:18:41;1.25;;;1.05;;
25299;SDS011;13241;51.208;4.432;2023-02-28T11:21:09;3.03;;;0.70;;
25299;SDS011;13241;51.208;4.432;2023-02-28T11:23:43;0.70;;;0.70;;
25299;SDS011;13241;51.208;4.432;2023-02-28T11:26:10;1.05;;;0.95;;
25299;SDS011;13241;51.208;4.432;2023-02-28T11:28:39;1.75;;;0.95;;
25299;SDS011;13241;51.208;4.432;2023-02-28T11:36:21;3.03;;;1.42;;
25299;SDS011;13241;51.208;4.432;2023-02-28T11:38:51;0.93;;;0.93;;
25299;SDS011;13241;51.208;4.432;2023-02-28T11:46:54;1.67;;;1.10;;
25299;SDS011;13241;51.208;4.432;2023-02-28T11:52:11;2.83;;;1.02;;
25299;SDS011;13241;51.208;4.432;2023-02-28T11:59:56;0.85;;;0.80;;
25299;SDS011;13241;51.208;4.432;2023-02-28T12:02:33;0.65;;;0.65;;
25299;SDS011;13241;51.208;4.432;2023-02-28T12:05:11;1.20;;;1.10;;
25299;SDS011;13241;51.208;4.432;2023-02-28T12:07:47;1.10;;;0.98;;
25299;SDS011;13241;51.208;4.432;2023-02-28T12:10:21;0.73;;;0.73;;
25299;SDS011;13241;51.208;4.432;2023-02-28T12:15:38;2.25;;;1.00;;
25299;SDS011;13241;51.208;4.432;2023-02-28T12:20:55;4.05;;;1.05;;
25299;SDS011;13241;51.208;4.432;2023-02-28T12:23:49;1.25;;;1.15;;
25299;SDS011;13241;51.208;4.432;2023-02-28T12:28:50;0.70;;;0.70;;
25299;SDS011;13241;51.208;4.432;2023-02-28T12:31:26;1.42;;;1.27;;
25299;SDS011;13241;51.208;4.432;2023-02-28T12:33:59;1.00;;;0.90;;
25299;SDS011;13241;51.208;4.432;2023-02-28T12:36:27;1.85;;;1.25;;
25299;SDS011;13241;51.208;4.432;2023-02-28T12:39:02;1.00;;;0.90;;
25299;SDS011;13241;51.208;4.432;2023-02-28T12:41:37;1.17;;;0.93;;
25299;SDS011;13241;51.208;4.432;2023-02-28T12:44:11;0.70;;;0.70;;
25299;SDS011;13241;51.208;4.432;2023-02-28T12:46:43;1.15;;;1.05;;
25299;SDS011;13241;51.208;4.432;2023-02-28T12:49:13;1.33;;;1.00;;
25299;SDS011;13241;51.208;4.432;2023-02-28T12:51:43;0.85;;;0.73;;
25299;SDS011;13241;51.208;4.432;2023-02-28T12:54:19;4.22;;;1.20;;
25299;SDS011;13241;51.208;4.432;2023-02-28T12:56:57;2.35;;;1.83;;
25299;SDS011;13241;51.208;4.432;2023-02-28T13:09:40;3.42;;;1.50;;
25299;SDS011;13241;51.208;4.432;2023-02-28T13:12:14;1.50;;;1.10;;
25299;SDS011;13241;51.208;4.432;2023-02-28T13:14:42;2.08;;;1.70;;
25299;SDS011;13241;51.208;4.432;2023-02-28T13:17:11;2.15;;;1.33;;
25299;SDS011;13241;51.208;4.432;2023-02-28T13:19:46;1.20;;;1.10;;
25299;SDS011;13241;51.208;4.432;2023-02-28T13:22:16;0.80;;;0.70;;
25299;SDS011;13241;51.208;4.432;2023-02-28T13:24:45;1.48;;;1.23;;
25299;SDS011;13241;51.208;4.432;2023-02-28T13:29:43;1.65;;;1.13;;
25299;SDS011;13241;51.208;4.432;2023-02-28T13:34:38;1.38;;;1.27;;
25299;SDS011;13241;51.208;4.432;2023-02-28T13:42:35;1.58;;;1.10;;
25299;SDS011;13241;51.208;4.432;2023-02-28T13:50:27;5.28;;;1.92;;
25299;SDS011;13241;51.208;4.432;2023-02-28T13:58:25;2.03;;;1.38;;
25299;SDS011;13241;51.208;4.432;2023-02-28T14:03:41;2.13;;;1.60;;
25299;SDS011;13241;51.208;4.432;2023-02-28T14:06:45;1.17;;;1.07;;
25299;SDS011;13241;51.208;4.432;2023-02-28T14:11:39;2.95;;;1.10;;
25299;SDS011;13241;51.208;4.432;2023-02-28T14:14:07;1.10;;;1.00;;
25299;SDS011;13241;51.208;4.432;2023-02-28T14:16:42;11.60;;;1.55;;
25299;SDS011;13241;51.208;4.432;2023-02-28T14:19:12;9.38;;;1.23;;
25299;SDS011;13241;51.208;4.432;2023-02-28T14:21:46;1.27;;;1.15;;
25299;SDS011;13241;51.208;4.432;2023-02-28T14:27:21;1.95;;;1.10;;
25299;SDS011;13241;51.208;4.432;2023-02-28T14:37:53;1.65;;;1.55;;
25299;SDS011;13241;51.208;4.432;2023-02-28T14:40:23;2.05;;;1.77;;
25299;SDS011;13241;51.208;4.432;2023-02-28T14:43:03;4.43;;;1.30;;
25299;SDS011;13241;51.208;4.432;2023-02-28T14:45:31;3.00;;;1.90;;
25299;SDS011;13241;51.208;4.432;2023-02-28T14:47:59;2.10;;;1.42;;
25299;SDS011;13241;51.208;4.432;2023-02-28T14:50:32;2.85;;;1.67;;
25299;SDS011;13241;51.208;4.432;2023-02-28T14:55:29;1.13;;;1.08;;
25299;SDS011;13241;51.208;4.432;2023-02-28T14:57:58;1.73;;;1.15;;
25299;SDS011;13241;51.208;4.432;2023-02-28T15:00:34;4.80;;;2.00;;
25299;SDS011;13241;51.208;4.432;2023-02-28T15:03:27;1.58;;;1.35;;
25299;SDS011;13241;51.208;4.432;2023-02-28T15:06:00;1.67;;;1.45;;
25299;SDS011;13241;51.208;4.432;2023-02-28T15:08:29;2.45;;;1.65;;
25299;SDS011;13241;51.208;4.432;2023-02-28T15:13:26;2.30;;;1.77;;
25299;SDS011;13241;51.208;4.432;2023-02-28T15:16:01;2.70;;;1.90;;
25299;SDS011;13241;51.208;4.432;2023-02-28T15:21:17;1.63;;;1.30;;
25299;SDS011;13241;51.208;4.432;2023-02-28T15:23:50;3.13;;;1.58;;
25299;SDS011;13241;51.208;4.432;2023-02-28T15:26:19;4.13;;;1.60;;
25299;SDS011;13241;51.208;4.432;2023-02-28T15:28:52;1.40;;;1.30;;
25299;SDS011;13241;51.208;4.432;2023-02-28T15:31:29;2.78;;;1.83;;
25299;SDS011;13241;51.208;4.432;2023-02-28T15:34:18;2.67;;;1.77;;
25299;SDS011;13241;51.208;4.432;2023-02-28T15:36:47;1.55;;;1.45;;
25299;SDS011;13241;51.208;4.432;2023-02-28T15:39:21;5.63;;;1.38;;
25299;SDS011;13241;51.208;4.432;2023-02-28T15:41:49;3.22;;;1.63;;
25299;SDS011;13241;51.208;4.432;2023-02-28T15:46:54;2.60;;;1.75;;
25299;SDS011;13241;51.208;4.432;2023-02-28T15:49:22;2.03;;;1.80;;
25299;SDS011;13241;51.208;4.432;2023-02-28T15:51:50;5.25;;;2.03;;
25299;SDS011;13241;51.208;4.432;2023-02-28T15:54:22;2.60;;;2.00;;
25299;SDS011;13241;51.208;4.432;2023-02-28T15:56:51;4.05;;;1.67;;
25299;SDS011;13241;51.208;4.432;2023-02-28T15:59:20;1.77;;;1.50;;
25299;SDS011;13241;51.208;4.432;2023-02-28T16:02:01;1.27;;;1.17;;
25299;SDS011;13241;51.208;4.432;2023-02-28T16:04:29;4.00;;;2.17;;
25299;SDS011;13241;51.208;4.432;2023-02-28T16:09:25;1.20;;;1.00;;
25299;SDS011;13241;51.208;4.432;2023-02-28T16:11:54;2.35;;;1.85;;
25299;SDS011;13241;51.208;4.432;2023-02-28T16:14:24;4.57;;;1.27;;
25299;SDS011;13241;51.208;4.432;2023-02-28T16:16:54;2.85;;;1.58;;
25299;SDS011;13241;51.208;4.432;2023-02-28T16:19:22;3.67;;;1.65;;
25299;SDS011;13241;51.208;4.432;2023-02-28T16:21:50;4.55;;;2.00;;
25299;SDS011;13241;51.208;4.432;2023-02-28T16:24:17;2.40;;;1.70;;
25299;SDS011;13241;51.208;4.432;2023-02-28T16:26:45;1.55;;;1.20;;
25299;SDS011;13241;51.208;4.432;2023-02-28T16:29:19;1.90;;;1.65;;
25299;SDS011;13241;51.208;4.432;2023-02-28T16:31:50;1.95;;;1.50;;
25299;SDS011;13241;51.208;4.432;2023-02-28T16:34:17;1.60;;;1.20;;
25299;SDS011;13241;51.208;4.432;2023-02-28T16:36:48;1.92;;;1.73;;
25299;SDS011;13241;51.208;4.432;2023-02-28T16:39:16;2.50;;;1.30;;
25299;SDS011;13241;51.208;4.432;2023-02-28T16:41:44;2.97;;;1.58;;
25299;SDS011;13241;51.208;4.432;2023-02-28T16:44:26;2.53;;;1.90;;
25299;SDS011;13241;51.208;4.432;2023-02-28T16:46:54;3.08;;;1.90;;
25299;SDS011;13241;51.208;4.432;2023-02-28T16:49:22;2.28;;;1.63;;
25299;SDS011;13241;51.208;4.432;2023-02-28T16:51:49;2.25;;;1.67;;
25299;SDS011;13241;51.208;4.432;2023-02-28T16:54:16;2.92;;;1.95;;
25299;SDS011;13241;51.208;4.432;2023-02-28T16:56:45;2.60;;;1.95;;
25299;SDS011;13241;51.208;4.432;2023-02-28T16:59:13;1.85;;;1.50;;
25299;SDS011;13241;51.208;4.432;2023-02-28T17:01:42;2.05;;;1.23;;
25299;SDS011;13241;51.208;4.432;2023-02-28T17:04:10;1.70;;;1.40;;
25299;SDS011;13241;51.208;4.432;2023-02-28T17:06:38;2.00;;;1.45;;
25299;SDS011;13241;51.208;4.432;2023-02-28T17:09:07;4.15;;;1.77;;
25299;SDS011;13241;51.208;4.432;2023-02-28T17:11:40;1.73;;;1.50;;
25299;SDS011;13241;51.208;4.432;2023-02-28T17:14:07;5.18;;;1.67;;
25299;SDS011;13241;51.208;4.432;2023-02-28T17:16:35;6.95;;;2.17;;
25299;SDS011;13241;51.208;4.432;2023-02-28T17:19:06;2.00;;;1.85;;